sensor_id;sensor_type;location;lat;lon;timestamp;temperature;humidity
12959;DHT22;6544;51.666;6.634;2022-11-04T00:00:45;11.70;1.00
12959;DHT22;6544;51.666;6.634;2022-11-04T00:03:13;11.60;1.00
12959;DHT22;6544;51.666;6.634;2022-11-04T00:05:40;11.70;1.00
12959;DHT22;6544;51.666;6.634;2022-11-04T00:08:07;11.60;99.90
12959;DHT22;6544;51.666;6.634;2022-11-04T00:10:53;11.60;1.00
12959;DHT22;6544;51.666;6.634;2022-11-04T00:13:37;11.60;1.00
12959;DHT22;6544;51.666;6.634;2022-11-04T00:16:05;11.60;99.90
12959;DHT22;6544;51.666;6.634;2022-11-04T00:18:51;11.60;99.90
12959;DHT22;6544;51.666;6.634;2022-11-04T00:21:18;11.50;99.90
12959;DHT22;6544;51.666;6.634;2022-11-04T00:24:02;11.50;99.90
12959;DHT22;6544;51.666;6.634;2022-11-04T00:26:46;11.40;99.90
12959;DHT22;6544;51.666;6.634;2022-11-04T00:29:30;11.50;99.90
12959;DHT22;6544;51.666;6.634;2022-11-04T00:31:57;11.40;99.90
12959;DHT22;6544;51.666;6.634;2022-11-04T00:34:43;11.30;1.00
12959;DHT22;6544;51.666;6.634;2022-11-04T00:37:10;11.20;99.90
12959;DHT22;6544;51.666;6.634;2022-11-04T00:39:37;11.20;1.00
12959;DHT22;6544;51.666;6.634;2022-11-04T00:42:04;11.30;99.90
12959;DHT22;6544;51.666;6.634;2022-11-04T00:44:31;11.20;99.90
12959;DHT22;6544;51.666;6.634;2022-11-04T00:46:58;11.20;99.90
12959;DHT22;6544;51.666;6.634;2022-11-04T00:49:25;11.20;99.90
12959;DHT22;6544;51.666;6.634;2022-11-04T00:51:53;11.30;99.90
12959;DHT22;6544;51.666;6.634;2022-11-04T00:54:20;11.20;99.90
12959;DHT22;6544;51.666;6.634;2022-11-04T00:56:47;11.20;99.90
12959;DHT22;6544;51.666;6.634;2022-11-04T00:59:14;11.20;99.90
12959;DHT22;6544;51.666;6.634;2022-11-04T01:01:41;11.20;99.90
12959;DHT22;6544;51.666;6.634;2022-11-04T01:04:08;11.20;99.90
12959;DHT22;6544;51.666;6.634;2022-11-04T01:06:35;11.10;99.90
12959;DHT22;6544;51.666;6.634;2022-11-04T01:09:06;11.20;1.00
12959;DHT22;6544;51.666;6.634;2022-11-04T01:11:33;11.20;99.90
12959;DHT22;6544;51.666;6.634;2022-11-04T01:14:00;11.20;99.90
12959;DHT22;6544;51.666;6.634;2022-11-04T01:16:28;11.20;99.90
12959;DHT22;6544;51.666;6.634;2022-11-04T01:18:54;11.20;99.90
12959;DHT22;6544;51.666;6.634;2022-11-04T01:21:22;11.10;1.00
12959;DHT22;6544;51.666;6.634;2022-11-04T01:23:48;11.20;1.00
12959;DHT22;6544;51.666;6.634;2022-11-04T01:26:18;11.20;99.90
12959;DHT22;6544;51.666;6.634;2022-11-04T01:28:45;11.10;99.90
12959;DHT22;6544;51.666;6.634;2022-11-04T01:31:14;11.00;1.00
12959;DHT22;6544;51.666;6.634;2022-11-04T01:33:42;11.00;1.00
12959;DHT22;6544;51.666;6.634;2022-11-04T01:36:10;11.00;1.00
12959;DHT22;6544;51.666;6.634;2022-11-04T01:38:37;11.00;1.00
12959;DHT22;6544;51.666;6.634;2022-11-04T01:41:05;11.00;99.90
12959;DHT22;6544;51.666;6.634;2022-11-04T01:43:44;11.00;99.90
12959;DHT22;6544;51.666;6.634;2022-11-04T01:46:16;11.00;99.90
12959;DHT22;6544;51.666;6.634;2022-11-04T01:48:46;10.90;1.00
12959;DHT22;6544;51.666;6.634;2022-11-04T01:51:14;11.00;99.90
12959;DHT22;6544;51.666;6.634;2022-11-04T01:53:42;11.00;99.90
12959;DHT22;6544;51.666;6.634;2022-11-04T01:56:11;11.00;99.90
12959;DHT22;6544;51.666;6.634;2022-11-04T01:58:45;10.90;99.90
12959;DHT22;6544;51.666;6.634;2022-11-04T02:01:12;10.90;99.90
12959;DHT22;6544;51.666;6.634;2022-11-04T02:03:44;10.90;99.90
12959;DHT22;6544;51.666;6.634;2022-11-04T02:06:13;10.90;99.90
12959;DHT22;6544;51.666;6.634;2022-11-04T02:08:41;10.80;99.90
12959;DHT22;6544;51.666;6.634;2022-11-04T02:11:08;10.80;99.90
12959;DHT22;6544;51.666;6.634;2022-11-04T02:13:36;10.80;99.90
12959;DHT22;6544;51.666;6.634;2022-11-04T02:16:10;10.80;99.90
12959;DHT22;6544;51.666;6.634;2022-11-04T02:18:53;10.70;99.90
12959;DHT22;6544;51.666;6.634;2022-11-04T02:21:34;10.70;99.90
12959;DHT22;6544;51.666;6.634;2022-11-04T02:24:41;10.70;99.90
12959;DHT22;6544;51.666;6.634;2022-11-04T02:27:28;10.70;99.90
12959;DHT22;6544;51.666;6.634;2022-11-04T02:30:03;10.70;99.90
12959;DHT22;6544;51.666;6.634;2022-11-04T02:32:40;10.70;99.90
12959;DHT22;6544;51.666;6.634;2022-11-04T02:35:13;10.60;1.00
12959;DHT22;6544;51.666;6.634;2022-11-04T02:37:49;10.60;1.00
12959;DHT22;6544;51.666;6.634;2022-11-04T02:40:24;10.60;1.00
12959;DHT22;6544;51.666;6.634;2022-11-04T02:42:57;10.60;1.00
12959;DHT22;6544;51.666;6.634;2022-11-04T02:45:32;10.50;1.00
12959;DHT22;6544;51.666;6.634;2022-11-04T02:48:04;10.60;1.00
12959;DHT22;6544;51.666;6.634;2022-11-04T02:50:38;10.50;1.00
12959;DHT22;6544;51.666;6.634;2022-11-04T02:53:11;10.60;1.00
12959;DHT22;6544;51.666;6.634;2022-11-04T02:55:42;10.60;1.00
12959;DHT22;6544;51.666;6.634;2022-11-04T02:58:14;10.70;1.00
12959;DHT22;6544;51.666;6.634;2022-11-04T03:00:45;10.70;99.90
12959;DHT22;6544;51.666;6.634;2022-11-04T03:03:16;10.70;99.90
12959;DHT22;6544;51.666;6.634;2022-11-04T03:05:47;10.70;99.90
12959;DHT22;6544;51.666;6.634;2022-11-04T03:08:19;10.70;99.90
12959;DHT22;6544;51.666;6.634;2022-11-04T03:10:51;10.70;99.90
12959;DHT22;6544;51.666;6.634;2022-11-04T03:13:21;10.70;99.90
12959;DHT22;6544;51.666;6.634;2022-11-04T03:15:55;10.70;99.90
12959;DHT22;6544;51.666;6.634;2022-11-04T03:18:28;10.70;99.90
12959;DHT22;6544;51.666;6.634;2022-11-04T03:21:01;10.60;99.90
12959;DHT22;6544;51.666;6.634;2022-11-04T03:23:28;10.60;99.90
12959;DHT22;6544;51.666;6.634;2022-11-04T03:26:01;10.60;99.90
12959;DHT22;6544;51.666;6.634;2022-11-04T03:28:36;10.50;99.90
12959;DHT22;6544;51.666;6.634;2022-11-04T03:31:11;10.50;99.90
12959;DHT22;6544;51.666;6.634;2022-11-04T03:33:42;10.40;99.90
12959;DHT22;6544;51.666;6.634;2022-11-04T03:36:11;10.40;99.90
12959;DHT22;6544;51.666;6.634;2022-11-04T03:38:38;10.40;99.90
12959;DHT22;6544;51.666;6.634;2022-11-04T03:41:09;10.40;99.90
12959;DHT22;6544;51.666;6.634;2022-11-04T03:43:39;10.40;99.90
12959;DHT22;6544;51.666;6.634;2022-11-04T03:46:08;10.50;99.90
12959;DHT22;6544;51.666;6.634;2022-11-04T03:48:36;10.50;99.90
12959;DHT22;6544;51.666;6.634;2022-11-04T03:51:03;10.50;99.90
12959;DHT22;6544;51.666;6.634;2022-11-04T03:53:31;10.50;99.90
12959;DHT22;6544;51.666;6.634;2022-11-04T03:56:14;10.50;98.90
12959;DHT22;6544;51.666;6.634;2022-11-04T03:58:52;10.50;1.00
12959;DHT22;6544;51.666;6.634;2022-11-04T04:01:31;10.50;1.00
12959;DHT22;6544;51.666;6.634;2022-11-04T04:04:07;10.40;1.00
12959;DHT22;6544;51.666;6.634;2022-11-04T04:06:35;10.50;1.00
12959;DHT22;6544;51.666;6.634;2022-11-04T04:09:07;10.40;1.00
12959;DHT22;6544;51.666;6.634;2022-11-04T04:11:41;10.40;1.00
12959;DHT22;6544;51.666;6.634;2022-11-04T04:14:16;10.50;1.00
12959;DHT22;6544;51.666;6.634;2022-11-04T04:17:08;10.50;1.00
12959;DHT22;6544;51.666;6.634;2022-11-04T04:19:36;10.50;1.00
12959;DHT22;6544;51.666;6.634;2022-11-04T04:22:08;10.50;1.00
12959;DHT22;6544;51.666;6.634;2022-11-04T04:24:41;10.40;1.00
12959;DHT22;6544;51.666;6.634;2022-11-04T04:27:28;10.40;1.00
12959;DHT22;6544;51.666;6.634;2022-11-04T04:30:02;10.40;1.00
12959;DHT22;6544;51.666;6.634;2022-11-04T04:32:35;10.10;1.00
12959;DHT22;6544;51.666;6.634;2022-11-04T04:35:04;10.20;99.90
12959;DHT22;6544;51.666;6.634;2022-11-04T04:37:51;10.30;39.90
12959;DHT22;6544;51.666;6.634;2022-11-04T04:40:21;10.30;1.00
12959;DHT22;6544;51.666;6.634;2022-11-04T04:43:10;10.30;1.00
12959;DHT22;6544;51.666;6.634;2022-11-04T04:45:57;10.40;1.00
12959;DHT22;6544;51.666;6.634;2022-11-04T04:48:25;10.40;1.00
12959;DHT22;6544;51.666;6.634;2022-11-04T04:50:53;10.40;1.00
12959;DHT22;6544;51.666;6.634;2022-11-04T04:53:22;10.40;1.00
12959;DHT22;6544;51.666;6.634;2022-11-04T04:55:48;10.40;1.00
12959;DHT22;6544;51.666;6.634;2022-11-04T04:58:15;10.50;1.00
12959;DHT22;6544;51.666;6.634;2022-11-04T05:00:42;10.50;1.00
12959;DHT22;6544;51.666;6.634;2022-11-04T05:03:09;10.50;99.90
12959;DHT22;6544;51.666;6.634;2022-11-04T05:05:37;10.50;99.90
12959;DHT22;6544;51.666;6.634;2022-11-04T05:08:05;10.40;99.90
12959;DHT22;6544;51.666;6.634;2022-11-04T05:10:32;10.40;1.00
12959;DHT22;6544;51.666;6.634;2022-11-04T05:12:59;10.40;1.00
12959;DHT22;6544;51.666;6.634;2022-11-04T05:15:46;10.40;1.00
12959;DHT22;6544;51.666;6.634;2022-11-04T05:18:13;10.40;1.00
12959;DHT22;6544;51.666;6.634;2022-11-04T05:20:41;10.40;1.00
12959;DHT22;6544;51.666;6.634;2022-11-04T05:23:08;10.30;1.00
12959;DHT22;6544;51.666;6.634;2022-11-04T05:25:37;10.30;1.00
12959;DHT22;6544;51.666;6.634;2022-11-04T05:28:05;10.30;1.00
12959;DHT22;6544;51.666;6.634;2022-11-04T05:30:32;10.30;1.00
12959;DHT22;6544;51.666;6.634;2022-11-04T05:32:59;10.30;1.00
12959;DHT22;6544;51.666;6.634;2022-11-04T05:35:26;10.20;1.00
12959;DHT22;6544;51.666;6.634;2022-11-04T05:37:55;10.10;1.00
12959;DHT22;6544;51.666;6.634;2022-11-04T05:40:22;10.00;1.00
12959;DHT22;6544;51.666;6.634;2022-11-04T05:42:49;10.00;1.00
12959;DHT22;6544;51.666;6.634;2022-11-04T05:45:17;10.00;92.80
12959;DHT22;6544;51.666;6.634;2022-11-04T05:47:44;10.00;99.90
12959;DHT22;6544;51.666;6.634;2022-11-04T05:50:11;10.00;99.90
12959;DHT22;6544;51.666;6.634;2022-11-04T05:52:38;10.00;92.40
12959;DHT22;6544;51.666;6.634;2022-11-04T05:55:07;10.10;99.90
12959;DHT22;6544;51.666;6.634;2022-11-04T05:57:34;10.10;1.00
12959;DHT22;6544;51.666;6.634;2022-11-04T06:00:03;10.10;7.40
12959;DHT22;6544;51.666;6.634;2022-11-04T06:02:30;10.20;1.00
12959;DHT22;6544;51.666;6.634;2022-11-04T06:04:57;10.20;1.00
12959;DHT22;6544;51.666;6.634;2022-11-04T06:07:24;10.30;1.00
12959;DHT22;6544;51.666;6.634;2022-11-04T06:09:51;10.20;1.00
12959;DHT22;6544;51.666;6.634;2022-11-04T06:12:19;10.20;1.00
12959;DHT22;6544;51.666;6.634;2022-11-04T06:14:46;10.20;1.00
12959;DHT22;6544;51.666;6.634;2022-11-04T06:17:13;10.10;1.00
12959;DHT22;6544;51.666;6.634;2022-11-04T06:19:41;10.10;1.00
12959;DHT22;6544;51.666;6.634;2022-11-04T06:22:08;10.10;1.00
12959;DHT22;6544;51.666;6.634;2022-11-04T06:24:36;10.10;1.00
12959;DHT22;6544;51.666;6.634;2022-11-04T06:27:03;10.10;1.00
12959;DHT22;6544;51.666;6.634;2022-11-04T06:29:31;10.20;1.00
12959;DHT22;6544;51.666;6.634;2022-11-04T06:31:58;10.20;1.00
12959;DHT22;6544;51.666;6.634;2022-11-04T06:34:25;10.20;99.90
12959;DHT22;6544;51.666;6.634;2022-11-04T06:36:52;10.30;99.90
12959;DHT22;6544;51.666;6.634;2022-11-04T06:39:19;10.30;99.90
12959;DHT22;6544;51.666;6.634;2022-11-04T06:41:46;10.30;99.90
12959;DHT22;6544;51.666;6.634;2022-11-04T06:44:13;10.30;99.90
12959;DHT22;6544;51.666;6.634;2022-11-04T06:46:42;10.20;99.90
12959;DHT22;6544;51.666;6.634;2022-11-04T06:49:11;10.30;99.90
12959;DHT22;6544;51.666;6.634;2022-11-04T06:51:38;10.30;99.90
12959;DHT22;6544;51.666;6.634;2022-11-04T06:54:05;10.30;99.90
12959;DHT22;6544;51.666;6.634;2022-11-04T06:56:32;10.30;99.90
12959;DHT22;6544;51.666;6.634;2022-11-04T06:58:59;10.30;99.90
12959;DHT22;6544;51.666;6.634;2022-11-04T07:01:28;10.30;99.90
12959;DHT22;6544;51.666;6.634;2022-11-04T07:03:58;10.40;99.90
12959;DHT22;6544;51.666;6.634;2022-11-04T07:06:27;10.40;99.90
12959;DHT22;6544;51.666;6.634;2022-11-04T07:08:56;10.40;99.90
12959;DHT22;6544;51.666;6.634;2022-11-04T07:11:24;10.40;99.90
12959;DHT22;6544;51.666;6.634;2022-11-04T07:13:51;10.50;99.90
12959;DHT22;6544;51.666;6.634;2022-11-04T07:16:18;10.50;99.90
12959;DHT22;6544;51.666;6.634;2022-11-04T07:18:46;10.50;99.90
12959;DHT22;6544;51.666;6.634;2022-11-04T07:21:15;10.50;99.90
12959;DHT22;6544;51.666;6.634;2022-11-04T07:23:42;10.50;1.00
12959;DHT22;6544;51.666;6.634;2022-11-04T07:26:10;10.50;1.00
12959;DHT22;6544;51.666;6.634;2022-11-04T07:28:37;10.50;1.00
12959;DHT22;6544;51.666;6.634;2022-11-04T07:31:08;10.50;1.00
12959;DHT22;6544;51.666;6.634;2022-11-04T07:33:36;10.50;1.00
12959;DHT22;6544;51.666;6.634;2022-11-04T07:36:04;10.50;99.90
12959;DHT22;6544;51.666;6.634;2022-11-04T07:38:32;10.50;1.00
12959;DHT22;6544;51.666;6.634;2022-11-04T07:40:59;10.50;1.00
12959;DHT22;6544;51.666;6.634;2022-11-04T07:43:27;10.50;99.90
12959;DHT22;6544;51.666;6.634;2022-11-04T07:46:02;10.50;99.90
12959;DHT22;6544;51.666;6.634;2022-11-04T07:48:29;10.50;99.90
12959;DHT22;6544;51.666;6.634;2022-11-04T07:50:57;10.40;99.90
12959;DHT22;6544;51.666;6.634;2022-11-04T07:53:24;10.40;99.90
12959;DHT22;6544;51.666;6.634;2022-11-04T07:55:53;10.50;1.00
12959;DHT22;6544;51.666;6.634;2022-11-04T07:58:36;10.50;99.90
12959;DHT22;6544;51.666;6.634;2022-11-04T08:01:05;10.50;99.90
12959;DHT22;6544;51.666;6.634;2022-11-04T08:03:32;10.60;99.90
12959;DHT22;6544;51.666;6.634;2022-11-04T08:06:01;10.60;99.90
12959;DHT22;6544;51.666;6.634;2022-11-04T08:08:29;10.60;99.90
12959;DHT22;6544;51.666;6.634;2022-11-04T08:11:02;10.60;99.90
12959;DHT22;6544;51.666;6.634;2022-11-04T08:13:31;10.70;99.90
12959;DHT22;6544;51.666;6.634;2022-11-04T08:16:00;10.70;99.90
12959;DHT22;6544;51.666;6.634;2022-11-04T08:18:29;10.80;23.10
12959;DHT22;6544;51.666;6.634;2022-11-04T08:20:56;10.80;1.00
12959;DHT22;6544;51.666;6.634;2022-11-04T08:23:23;10.70;24.70
12959;DHT22;6544;51.666;6.634;2022-11-04T08:25:50;10.70;1.00
12959;DHT22;6544;51.666;6.634;2022-11-04T08:28:18;10.60;1.00
12959;DHT22;6544;51.666;6.634;2022-11-04T08:30:52;10.60;99.90
12959;DHT22;6544;51.666;6.634;2022-11-04T08:33:19;10.60;99.90
12959;DHT22;6544;51.666;6.634;2022-11-04T08:35:46;10.60;99.90
12959;DHT22;6544;51.666;6.634;2022-11-04T08:38:13;10.60;99.90
12959;DHT22;6544;51.666;6.634;2022-11-04T08:40:40;10.60;99.90
12959;DHT22;6544;51.666;6.634;2022-11-04T08:43:07;10.60;99.90
12959;DHT22;6544;51.666;6.634;2022-11-04T08:45:39;10.70;99.90
12959;DHT22;6544;51.666;6.634;2022-11-04T08:48:06;10.70;99.90
12959;DHT22;6544;51.666;6.634;2022-11-04T08:50:34;10.80;99.90
12959;DHT22;6544;51.666;6.634;2022-11-04T08:53:01;10.80;99.90
12959;DHT22;6544;51.666;6.634;2022-11-04T08:55:28;10.80;99.90
12959;DHT22;6544;51.666;6.634;2022-11-04T08:57:55;10.90;99.90
12959;DHT22;6544;51.666;6.634;2022-11-04T09:00:22;10.90;99.90
12959;DHT22;6544;51.666;6.634;2022-11-04T09:02:51;11.00;99.90
12959;DHT22;6544;51.666;6.634;2022-11-04T09:05:20;11.10;99.90
12959;DHT22;6544;51.666;6.634;2022-11-04T09:07:47;11.10;1.00
12959;DHT22;6544;51.666;6.634;2022-11-04T09:10:14;11.20;1.00
12959;DHT22;6544;51.666;6.634;2022-11-04T09:12:42;11.20;1.00
12959;DHT22;6544;51.666;6.634;2022-11-04T09:15:10;11.20;1.00
12959;DHT22;6544;51.666;6.634;2022-11-04T09:17:37;11.30;1.00
12959;DHT22;6544;51.666;6.634;2022-11-04T09:20:06;11.30;1.00
12959;DHT22;6544;51.666;6.634;2022-11-04T09:22:33;11.30;1.00
12959;DHT22;6544;51.666;6.634;2022-11-04T09:25:00;11.40;99.90
12959;DHT22;6544;51.666;6.634;2022-11-04T09:27:27;11.40;99.90
12959;DHT22;6544;51.666;6.634;2022-11-04T09:29:54;11.40;99.90
12959;DHT22;6544;51.666;6.634;2022-11-04T09:32:21;11.50;99.90
12959;DHT22;6544;51.666;6.634;2022-11-04T09:34:48;11.50;99.90
12959;DHT22;6544;51.666;6.634;2022-11-04T09:37:16;11.50;1.00
12959;DHT22;6544;51.666;6.634;2022-11-04T09:39:43;11.50;1.00
12959;DHT22;6544;51.666;6.634;2022-11-04T09:42:28;11.40;99.90
12959;DHT22;6544;51.666;6.634;2022-11-04T09:45:00;11.50;99.90
12959;DHT22;6544;51.666;6.634;2022-11-04T09:47:29;11.60;99.90
12959;DHT22;6544;51.666;6.634;2022-11-04T09:49:58;11.70;1.00
12959;DHT22;6544;51.666;6.634;2022-11-04T09:52:30;11.70;99.90
12959;DHT22;6544;51.666;6.634;2022-11-04T09:55:02;11.70;1.00
12959;DHT22;6544;51.666;6.634;2022-11-04T09:57:31;11.80;1.00
12959;DHT22;6544;51.666;6.634;2022-11-04T09:59:58;11.80;1.00
12959;DHT22;6544;51.666;6.634;2022-11-04T10:02:39;11.80;99.90
12959;DHT22;6544;51.666;6.634;2022-11-04T10:05:22;11.80;1.00
12959;DHT22;6544;51.666;6.634;2022-11-04T10:08:06;11.90;99.90
12959;DHT22;6544;51.666;6.634;2022-11-04T10:10:42;11.90;99.90
12959;DHT22;6544;51.666;6.634;2022-11-04T10:13:40;12.00;1.00
12959;DHT22;6544;51.666;6.634;2022-11-04T10:16:32;12.10;1.00
12959;DHT22;6544;51.666;6.634;2022-11-04T10:19:11;12.10;6.00
12959;DHT22;6544;51.666;6.634;2022-11-04T10:21:45;12.10;99.90
12959;DHT22;6544;51.666;6.634;2022-11-04T10:24:23;12.20;99.90
12959;DHT22;6544;51.666;6.634;2022-11-04T10:26:53;12.20;99.90
12959;DHT22;6544;51.666;6.634;2022-11-04T10:29:26;12.30;99.90
12959;DHT22;6544;51.666;6.634;2022-11-04T10:31:56;12.30;1.00
12959;DHT22;6544;51.666;6.634;2022-11-04T10:34:30;12.30;1.00
12959;DHT22;6544;51.666;6.634;2022-11-04T10:37:01;12.20;1.00
12959;DHT22;6544;51.666;6.634;2022-11-04T10:39:34;12.20;1.00
12959;DHT22;6544;51.666;6.634;2022-11-04T10:42:03;12.30;1.00
12959;DHT22;6544;51.666;6.634;2022-11-04T10:44:32;12.30;1.00
12959;DHT22;6544;51.666;6.634;2022-11-04T10:47:06;12.40;99.90
12959;DHT22;6544;51.666;6.634;2022-11-04T10:49:51;12.30;1.00
12959;DHT22;6544;51.666;6.634;2022-11-04T10:52:20;12.40;99.90
12959;DHT22;6544;51.666;6.634;2022-11-04T10:54:49;12.40;1.00
12959;DHT22;6544;51.666;6.634;2022-11-04T10:57:19;12.40;1.00
12959;DHT22;6544;51.666;6.634;2022-11-04T10:59:51;12.60;1.00
12959;DHT22;6544;51.666;6.634;2022-11-04T11:02:43;12.90;11.30
12959;DHT22;6544;51.666;6.634;2022-11-04T11:05:20;13.00;99.90
12959;DHT22;6544;51.666;6.634;2022-11-04T11:07:49;12.90;1.00
12959;DHT22;6544;51.666;6.634;2022-11-04T11:10:20;13.00;99.90
12959;DHT22;6544;51.666;6.634;2022-11-04T11:12:52;13.20;1.00
12959;DHT22;6544;51.666;6.634;2022-11-04T11:15:28;13.20;1.00
12959;DHT22;6544;51.666;6.634;2022-11-04T11:18:00;13.20;99.90
12959;DHT22;6544;51.666;6.634;2022-11-04T11:20:37;13.40;1.00
12959;DHT22;6544;51.666;6.634;2022-11-04T11:25:55;13.50;4.00
12959;DHT22;6544;51.666;6.634;2022-11-04T11:28:23;13.40;99.90
12959;DHT22;6544;51.666;6.634;2022-11-04T11:30:56;13.40;49.20
12959;DHT22;6544;51.666;6.634;2022-11-04T11:33:26;13.50;56.30
12959;DHT22;6544;51.666;6.634;2022-11-04T11:35:57;13.50;1.00
12959;DHT22;6544;51.666;6.634;2022-11-04T11:38:26;13.60;51.90
12959;DHT22;6544;51.666;6.634;2022-11-04T11:41:04;13.70;1.00
12959;DHT22;6544;51.666;6.634;2022-11-04T11:43:34;13.70;99.90
12959;DHT22;6544;51.666;6.634;2022-11-04T11:46:02;13.80;1.00
12959;DHT22;6544;51.666;6.634;2022-11-04T11:48:31;13.90;1.00
12959;DHT22;6544;51.666;6.634;2022-11-04T11:50:59;13.60;99.90
12959;DHT22;6544;51.666;6.634;2022-11-04T11:53:27;13.60;99.90
12959;DHT22;6544;51.666;6.634;2022-11-04T11:56:03;13.60;1.00
12959;DHT22;6544;51.666;6.634;2022-11-04T11:58:40;13.50;1.00
12959;DHT22;6544;51.666;6.634;2022-11-04T12:01:14;13.40;1.00
12959;DHT22;6544;51.666;6.634;2022-11-04T12:03:43;13.10;22.20
12959;DHT22;6544;51.666;6.634;2022-11-04T12:06:24;13.40;99.90
12959;DHT22;6544;51.666;6.634;2022-11-04T12:09:10;13.20;1.00
12959;DHT22;6544;51.666;6.634;2022-11-04T12:11:48;13.20;1.00
12959;DHT22;6544;51.666;6.634;2022-11-04T12:14:23;13.40;1.00
12959;DHT22;6544;51.666;6.634;2022-11-04T12:16:58;13.50;99.90
12959;DHT22;6544;51.666;6.634;2022-11-04T12:19:45;13.80;1.00
12959;DHT22;6544;51.666;6.634;2022-11-04T12:22:21;14.00;87.60
12959;DHT22;6544;51.666;6.634;2022-11-04T12:24:55;14.20;1.00
12959;DHT22;6544;51.666;6.634;2022-11-04T12:27:33;14.40;1.00
12959;DHT22;6544;51.666;6.634;2022-11-04T12:30:07;14.40;99.90
12959;DHT22;6544;51.666;6.634;2022-11-04T12:32:52;14.20;1.00
12959;DHT22;6544;51.666;6.634;2022-11-04T12:35:39;14.50;1.00
12959;DHT22;6544;51.666;6.634;2022-11-04T12:41:08;14.60;1.00
12959;DHT22;6544;51.666;6.634;2022-11-04T12:43:42;14.50;1.00
12959;DHT22;6544;51.666;6.634;2022-11-04T12:46:19;14.30;1.00
12959;DHT22;6544;51.666;6.634;2022-11-04T12:49:07;14.60;1.00
12959;DHT22;6544;51.666;6.634;2022-11-04T12:51:45;14.90;16.00
12959;DHT22;6544;51.666;6.634;2022-11-04T12:54:36;15.10;1.00
12959;DHT22;6544;51.666;6.634;2022-11-04T12:57:13;15.10;1.00
12959;DHT22;6544;51.666;6.634;2022-11-04T12:59:58;14.70;1.00
12959;DHT22;6544;51.666;6.634;2022-11-04T13:02:31;14.40;1.00
12959;DHT22;6544;51.666;6.634;2022-11-04T13:05:04;14.30;1.00
12959;DHT22;6544;51.666;6.634;2022-11-04T13:07:35;14.70;1.00
12959;DHT22;6544;51.666;6.634;2022-11-04T13:10:14;14.80;99.90
12959;DHT22;6544;51.666;6.634;2022-11-04T13:12:43;14.90;1.00
12959;DHT22;6544;51.666;6.634;2022-11-04T13:15:15;15.00;1.00
12959;DHT22;6544;51.666;6.634;2022-11-04T13:17:45;14.70;1.00
12959;DHT22;6544;51.666;6.634;2022-11-04T13:20:21;14.40;1.00
12959;DHT22;6544;51.666;6.634;2022-11-04T13:22:52;14.40;48.10
12959;DHT22;6544;51.666;6.634;2022-11-04T13:25:28;14.70;99.90
12959;DHT22;6544;51.666;6.634;2022-11-04T13:27:56;15.00;10.90
12959;DHT22;6544;51.666;6.634;2022-11-04T13:30:30;15.00;1.00
12959;DHT22;6544;51.666;6.634;2022-11-04T13:33:07;15.20;1.00
12959;DHT22;6544;51.666;6.634;2022-11-04T13:35:43;14.60;1.00
12959;DHT22;6544;51.666;6.634;2022-11-04T13:38:14;14.00;1.00
12959;DHT22;6544;51.666;6.634;2022-11-04T13:40:50;14.00;99.90
12959;DHT22;6544;51.666;6.634;2022-11-04T13:43:22;14.10;99.90
12959;DHT22;6544;51.666;6.634;2022-11-04T13:46:18;13.60;99.90
12959;DHT22;6544;51.666;6.634;2022-11-04T13:48:59;13.50;1.00
12959;DHT22;6544;51.666;6.634;2022-11-04T13:51:34;13.10;99.90
12959;DHT22;6544;51.666;6.634;2022-11-04T13:54:02;12.90;1.00
12959;DHT22;6544;51.666;6.634;2022-11-04T13:56:33;13.00;1.00
12959;DHT22;6544;51.666;6.634;2022-11-04T13:59:04;12.90;1.00
12959;DHT22;6544;51.666;6.634;2022-11-04T14:01:33;13.00;1.00
12959;DHT22;6544;51.666;6.634;2022-11-04T14:04:17;12.80;99.90
12959;DHT22;6544;51.666;6.634;2022-11-04T14:06:55;12.70;99.90
12959;DHT22;6544;51.666;6.634;2022-11-04T14:09:35;12.70;99.90
12959;DHT22;6544;51.666;6.634;2022-11-04T14:12:33;12.80;99.90
12959;DHT22;6544;51.666;6.634;2022-11-04T14:15:12;12.80;1.00
12959;DHT22;6544;51.666;6.634;2022-11-04T14:17:58;12.90;1.00
12959;DHT22;6544;51.666;6.634;2022-11-04T14:20:30;12.90;99.90
12959;DHT22;6544;51.666;6.634;2022-11-04T14:22:59;12.80;1.00
12959;DHT22;6544;51.666;6.634;2022-11-04T14:25:29;12.70;1.00
12959;DHT22;6544;51.666;6.634;2022-11-04T14:27:58;12.80;99.90
12959;DHT22;6544;51.666;6.634;2022-11-04T14:30:33;12.60;1.00
12959;DHT22;6544;51.666;6.634;2022-11-04T14:33:04;12.50;93.70
12959;DHT22;6544;51.666;6.634;2022-11-04T14:35:33;12.40;99.90
12959;DHT22;6544;51.666;6.634;2022-11-04T14:38:06;12.50;99.90
12959;DHT22;6544;51.666;6.634;2022-11-04T14:40:47;12.50;1.00
12959;DHT22;6544;51.666;6.634;2022-11-04T14:43:24;12.50;1.00
12959;DHT22;6544;51.666;6.634;2022-11-04T14:45:54;12.40;1.00
12959;DHT22;6544;51.666;6.634;2022-11-04T14:48:21;12.30;99.90
12959;DHT22;6544;51.666;6.634;2022-11-04T14:50:52;12.30;99.90
12959;DHT22;6544;51.666;6.634;2022-11-04T14:53:24;12.30;1.00
12959;DHT22;6544;51.666;6.634;2022-11-04T14:56:10;12.30;1.00
12959;DHT22;6544;51.666;6.634;2022-11-04T14:58:52;12.10;99.90
12959;DHT22;6544;51.666;6.634;2022-11-04T15:01:20;12.10;1.00
12959;DHT22;6544;51.666;6.634;2022-11-04T15:03:47;12.10;99.90
12959;DHT22;6544;51.666;6.634;2022-11-04T15:06:22;12.20;99.90
12959;DHT22;6544;51.666;6.634;2022-11-04T15:08:50;12.20;1.00
12959;DHT22;6544;51.666;6.634;2022-11-04T15:11:19;12.20;1.00
12959;DHT22;6544;51.666;6.634;2022-11-04T15:14:13;12.10;1.00
12959;DHT22;6544;51.666;6.634;2022-11-04T15:16:41;12.20;1.00
12959;DHT22;6544;51.666;6.634;2022-11-04T15:19:10;12.20;1.00
12959;DHT22;6544;51.666;6.634;2022-11-04T15:21:40;12.00;99.90
12959;DHT22;6544;51.666;6.634;2022-11-04T15:24:13;11.90;1.00
12959;DHT22;6544;51.666;6.634;2022-11-04T15:26:42;11.80;1.00
12959;DHT22;6544;51.666;6.634;2022-11-04T15:29:15;11.80;99.90
12959;DHT22;6544;51.666;6.634;2022-11-04T15:31:53;11.80;99.90
12959;DHT22;6544;51.666;6.634;2022-11-04T15:34:20;11.80;99.90
12959;DHT22;6544;51.666;6.634;2022-11-04T15:36:49;11.80;99.90
12959;DHT22;6544;51.666;6.634;2022-11-04T15:39:19;11.80;99.90
12959;DHT22;6544;51.666;6.634;2022-11-04T15:41:48;11.70;99.90
12959;DHT22;6544;51.666;6.634;2022-11-04T15:44:35;11.60;1.00
12959;DHT22;6544;51.666;6.634;2022-11-04T15:47:20;11.60;1.00
12959;DHT22;6544;51.666;6.634;2022-11-04T15:49:49;11.50;1.00
12959;DHT22;6544;51.666;6.634;2022-11-04T15:52:20;11.50;1.00
12959;DHT22;6544;51.666;6.634;2022-11-04T15:54:49;11.50;1.00
12959;DHT22;6544;51.666;6.634;2022-11-04T15:57:18;11.40;3.20
12959;DHT22;6544;51.666;6.634;2022-11-04T15:59:50;11.50;1.00
12959;DHT22;6544;51.666;6.634;2022-11-04T16:02:23;11.50;28.70
12959;DHT22;6544;51.666;6.634;2022-11-04T16:05:03;11.40;11.40
12959;DHT22;6544;51.666;6.634;2022-11-04T16:07:34;11.40;58.80
12959;DHT22;6544;51.666;6.634;2022-11-04T16:10:02;11.50;1.00
12959;DHT22;6544;51.666;6.634;2022-11-04T16:12:34;11.40;4.10
12959;DHT22;6544;51.666;6.634;2022-11-04T16:15:02;11.40;99.90
12959;DHT22;6544;51.666;6.634;2022-11-04T16:17:29;11.40;99.90
12959;DHT22;6544;51.666;6.634;2022-11-04T16:19:59;11.40;99.90
12959;DHT22;6544;51.666;6.634;2022-11-04T16:22:31;11.30;99.90
12959;DHT22;6544;51.666;6.634;2022-11-04T16:25:00;11.40;99.90
12959;DHT22;6544;51.666;6.634;2022-11-04T16:27:30;11.40;99.90